sensor_id;sensor_type;location;lat;lon;timestamp;temperature;humidity
17170;DHT22;8700;48.222;16.342;2023-07-09T00:01:00;24.30;84.80
17170;DHT22;8700;48.222;16.342;2023-07-09T00:04:23;24.40;85.00
17170;DHT22;8700;48.222;16.342;2023-07-09T00:07:45;24.40;85.30
17170;DHT22;8700;48.222;16.342;2023-07-09T00:11:06;24.30;85.40
17170;DHT22;8700;48.222;16.342;2023-07-09T00:14:28;24.30;86.00
17170;DHT22;8700;48.222;16.342;2023-07-09T00:17:49;24.30;86.50
17170;DHT22;8700;48.222;16.342;2023-07-09T00:21:12;24.20;86.90
17170;DHT22;8700;48.222;16.342;2023-07-09T00:24:33;24.20;86.90
17170;DHT22;8700;48.222;16.342;2023-07-09T00:27:55;24.20;87.50
17170;DHT22;8700;48.222;16.342;2023-07-09T00:31:16;24.00;90.50
17170;DHT22;8700;48.222;16.342;2023-07-09T00:34:38;23.70;91.80
17170;DHT22;8700;48.222;16.342;2023-07-09T00:38:01;23.70;92.70
17170;DHT22;8700;48.222;16.342;2023-07-09T00:41:23;23.60;93.70
17170;DHT22;8700;48.222;16.342;2023-07-09T00:44:45;23.50;94.40
17170;DHT22;8700;48.222;16.342;2023-07-09T00:48:12;23.40;95.20
17170;DHT22;8700;48.222;16.342;2023-07-09T00:51:38;23.20;96.10
17170;DHT22;8700;48.222;16.342;2023-07-09T00:55:05;23.00;97.20
17170;DHT22;8700;48.222;16.342;2023-07-09T00:58:31;22.80;98.40
17170;DHT22;8700;48.222;16.342;2023-07-09T01:01:54;22.80;99.20
17170;DHT22;8700;48.222;16.342;2023-07-09T01:05:17;22.70;99.90
17170;DHT22;8700;48.222;16.342;2023-07-09T01:08:40;22.70;99.90
17170;DHT22;8700;48.222;16.342;2023-07-09T01:12:06;22.60;99.90
17170;DHT22;8700;48.222;16.342;2023-07-09T01:15:31;22.40;99.90
17170;DHT22;8700;48.222;16.342;2023-07-09T01:18:54;22.50;99.90
17170;DHT22;8700;48.222;16.342;2023-07-09T01:22:19;22.60;99.90
17170;DHT22;8700;48.222;16.342;2023-07-09T01:25:44;22.50;99.90
17170;DHT22;8700;48.222;16.342;2023-07-09T01:29:06;22.50;99.90
17170;DHT22;8700;48.222;16.342;2023-07-09T01:32:27;22.50;99.90
17170;DHT22;8700;48.222;16.342;2023-07-09T01:35:49;22.60;99.90
17170;DHT22;8700;48.222;16.342;2023-07-09T01:39:11;22.50;99.90
17170;DHT22;8700;48.222;16.342;2023-07-09T01:42:33;22.50;99.90
17170;DHT22;8700;48.222;16.342;2023-07-09T01:45:54;22.40;99.90
17170;DHT22;8700;48.222;16.342;2023-07-09T01:49:20;22.40;99.90
17170;DHT22;8700;48.222;16.342;2023-07-09T01:52:50;22.40;99.90
17170;DHT22;8700;48.222;16.342;2023-07-09T01:56:12;22.40;99.90
17170;DHT22;8700;48.222;16.342;2023-07-09T01:59:34;22.30;99.90
17170;DHT22;8700;48.222;16.342;2023-07-09T02:03:01;22.40;99.90
17170;DHT22;8700;48.222;16.342;2023-07-09T02:06:23;22.40;99.90
17170;DHT22;8700;48.222;16.342;2023-07-09T02:09:44;22.30;99.90
17170;DHT22;8700;48.222;16.342;2023-07-09T02:13:07;22.20;99.90
17170;DHT22;8700;48.222;16.342;2023-07-09T02:16:29;22.20;99.90
17170;DHT22;8700;48.222;16.342;2023-07-09T02:19:51;22.10;99.90
17170;DHT22;8700;48.222;16.342;2023-07-09T02:23:12;22.00;99.90
17170;DHT22;8700;48.222;16.342;2023-07-09T02:26:34;21.80;99.90
17170;DHT22;8700;48.222;16.342;2023-07-09T02:29:57;21.70;99.90
17170;DHT22;8700;48.222;16.342;2023-07-09T02:33:18;21.70;99.90
17170;DHT22;8700;48.222;16.342;2023-07-09T02:36:43;21.70;99.90
17170;DHT22;8700;48.222;16.342;2023-07-09T02:40:07;21.70;99.90
17170;DHT22;8700;48.222;16.342;2023-07-09T02:43:28;21.80;99.90
17170;DHT22;8700;48.222;16.342;2023-07-09T02:46:52;21.80;99.90
17170;DHT22;8700;48.222;16.342;2023-07-09T02:50:13;21.80;99.90
17170;DHT22;8700;48.222;16.342;2023-07-09T02:53:35;21.80;99.90
17170;DHT22;8700;48.222;16.342;2023-07-09T02:56:56;21.60;99.90
17170;DHT22;8700;48.222;16.342;2023-07-09T03:00:18;21.50;99.90
17170;DHT22;8700;48.222;16.342;2023-07-09T03:03:40;21.60;99.90
17170;DHT22;8700;48.222;16.342;2023-07-09T03:07:02;21.70;99.90
17170;DHT22;8700;48.222;16.342;2023-07-09T03:10:24;21.80;99.90
17170;DHT22;8700;48.222;16.342;2023-07-09T03:13:48;21.70;99.90
17170;DHT22;8700;48.222;16.342;2023-07-09T03:17:11;21.80;99.90
17170;DHT22;8700;48.222;16.342;2023-07-09T03:20:35;21.80;99.90
17170;DHT22;8700;48.222;16.342;2023-07-09T03:23:58;21.80;99.90
17170;DHT22;8700;48.222;16.342;2023-07-09T03:27:20;21.80;99.90
17170;DHT22;8700;48.222;16.342;2023-07-09T03:30:41;21.80;99.90
17170;DHT22;8700;48.222;16.342;2023-07-09T03:34:03;21.60;99.90
17170;DHT22;8700;48.222;16.342;2023-07-09T03:37:26;21.70;99.90
17170;DHT22;8700;48.222;16.342;2023-07-09T03:40:50;21.80;99.90
17170;DHT22;8700;48.222;16.342;2023-07-09T03:44:11;21.90;99.90
17170;DHT22;8700;48.222;16.342;2023-07-09T03:47:33;22.10;99.90
17170;DHT22;8700;48.222;16.342;2023-07-09T03:50:54;22.10;99.90
17170;DHT22;8700;48.222;16.342;2023-07-09T03:54:17;22.20;99.90
17170;DHT22;8700;48.222;16.342;2023-07-09T03:57:38;22.20;99.90
17170;DHT22;8700;48.222;16.342;2023-07-09T04:01:00;22.20;99.90
17170;DHT22;8700;48.222;16.342;2023-07-09T04:04:21;22.20;99.90
17170;DHT22;8700;48.222;16.342;2023-07-09T04:07:42;22.30;99.90
17170;DHT22;8700;48.222;16.342;2023-07-09T04:11:05;22.30;99.90
17170;DHT22;8700;48.222;16.342;2023-07-09T04:14:28;22.40;99.90
17170;DHT22;8700;48.222;16.342;2023-07-09T04:17:49;22.40;99.90
17170;DHT22;8700;48.222;16.342;2023-07-09T04:21:11;22.40;99.90
17170;DHT22;8700;48.222;16.342;2023-07-09T04:24:40;22.40;99.90
17170;DHT22;8700;48.222;16.342;2023-07-09T04:28:04;22.50;99.90
17170;DHT22;8700;48.222;16.342;2023-07-09T04:31:25;22.70;99.90
17170;DHT22;8700;48.222;16.342;2023-07-09T04:34:47;22.80;99.90
17170;DHT22;8700;48.222;16.342;2023-07-09T04:38:08;23.00;99.90
17170;DHT22;8700;48.222;16.342;2023-07-09T04:41:29;23.20;99.90
17170;DHT22;8700;48.222;16.342;2023-07-09T04:44:52;23.20;99.90
17170;DHT22;8700;48.222;16.342;2023-07-09T04:48:16;23.30;99.90
17170;DHT22;8700;48.222;16.342;2023-07-09T04:51:37;23.30;99.90
17170;DHT22;8700;48.222;16.342;2023-07-09T04:54:59;23.30;99.90
17170;DHT22;8700;48.222;16.342;2023-07-09T04:58:23;23.30;99.90
17170;DHT22;8700;48.222;16.342;2023-07-09T05:01:45;23.40;99.90
17170;DHT22;8700;48.222;16.342;2023-07-09T05:05:07;23.50;99.90
17170;DHT22;8700;48.222;16.342;2023-07-09T05:08:28;23.70;99.90
17170;DHT22;8700;48.222;16.342;2023-07-09T05:11:50;23.90;99.90
17170;DHT22;8700;48.222;16.342;2023-07-09T05:15:13;24.00;99.90
17170;DHT22;8700;48.222;16.342;2023-07-09T05:18:36;24.00;99.90
17170;DHT22;8700;48.222;16.342;2023-07-09T05:21:58;24.20;99.90
17170;DHT22;8700;48.222;16.342;2023-07-09T05:25:19;24.20;99.90
17170;DHT22;8700;48.222;16.342;2023-07-09T05:28:40;24.30;99.90
17170;DHT22;8700;48.222;16.342;2023-07-09T05:32:01;24.30;99.90
17170;DHT22;8700;48.222;16.342;2023-07-09T05:35:25;24.20;99.90
17170;DHT22;8700;48.222;16.342;2023-07-09T05:38:46;24.20;99.90
17170;DHT22;8700;48.222;16.342;2023-07-09T05:42:08;24.20;99.90
17170;DHT22;8700;48.222;16.342;2023-07-09T05:45:33;24.30;99.90
17170;DHT22;8700;48.222;16.342;2023-07-09T05:48:57;24.40;99.90
17170;DHT22;8700;48.222;16.342;2023-07-09T05:52:21;24.50;99.90
17170;DHT22;8700;48.222;16.342;2023-07-09T05:55:43;24.50;99.90
17170;DHT22;8700;48.222;16.342;2023-07-09T05:59:04;24.70;99.90
17170;DHT22;8700;48.222;16.342;2023-07-09T06:02:25;24.70;99.90
17170;DHT22;8700;48.222;16.342;2023-07-09T06:05:47;24.90;99.90
17170;DHT22;8700;48.222;16.342;2023-07-09T06:09:10;24.80;99.90
17170;DHT22;8700;48.222;16.342;2023-07-09T06:12:32;24.90;99.90
17170;DHT22;8700;48.222;16.342;2023-07-09T06:15:56;25.00;99.90
17170;DHT22;8700;48.222;16.342;2023-07-09T06:19:20;25.20;99.90
17170;DHT22;8700;48.222;16.342;2023-07-09T06:22:42;25.50;99.90
17170;DHT22;8700;48.222;16.342;2023-07-09T06:26:06;25.60;99.90
17170;DHT22;8700;48.222;16.342;2023-07-09T06:29:27;25.70;99.90
17170;DHT22;8700;48.222;16.342;2023-07-09T06:32:48;25.70;99.90
17170;DHT22;8700;48.222;16.342;2023-07-09T06:36:10;25.80;99.90
17170;DHT22;8700;48.222;16.342;2023-07-09T06:39:31;25.90;99.90
17170;DHT22;8700;48.222;16.342;2023-07-09T06:42:54;26.00;99.90
17170;DHT22;8700;48.222;16.342;2023-07-09T06:46:17;26.10;99.90
17170;DHT22;8700;48.222;16.342;2023-07-09T06:49:39;26.00;99.90
17170;DHT22;8700;48.222;16.342;2023-07-09T06:53:00;25.90;99.90
17170;DHT22;8700;48.222;16.342;2023-07-09T06:56:22;26.20;99.90
17170;DHT22;8700;48.222;16.342;2023-07-09T06:59:44;26.50;99.90
17170;DHT22;8700;48.222;16.342;2023-07-09T07:03:09;26.60;99.90
17170;DHT22;8700;48.222;16.342;2023-07-09T07:06:30;26.70;99.90
17170;DHT22;8700;48.222;16.342;2023-07-09T07:09:51;27.00;99.90
17170;DHT22;8700;48.222;16.342;2023-07-09T07:13:13;27.00;99.90
17170;DHT22;8700;48.222;16.342;2023-07-09T07:16:36;27.10;99.90
17170;DHT22;8700;48.222;16.342;2023-07-09T07:19:57;27.40;99.90
17170;DHT22;8700;48.222;16.342;2023-07-09T07:23:22;27.50;99.90
17170;DHT22;8700;48.222;16.342;2023-07-09T07:26:44;27.70;99.90
17170;DHT22;8700;48.222;16.342;2023-07-09T07:30:07;27.70;99.90
17170;DHT22;8700;48.222;16.342;2023-07-09T07:33:30;28.00;99.90
17170;DHT22;8700;48.222;16.342;2023-07-09T07:36:52;28.70;99.30
17170;DHT22;8700;48.222;16.342;2023-07-09T07:40:13;29.80;98.10
17170;DHT22;8700;48.222;16.342;2023-07-09T07:43:34;31.40;95.80
17170;DHT22;8700;48.222;16.342;2023-07-09T07:46:55;32.70;93.60
17170;DHT22;8700;48.222;16.342;2023-07-09T07:50:18;33.70;90.40
17170;DHT22;8700;48.222;16.342;2023-07-09T07:53:40;34.40;87.20
17170;DHT22;8700;48.222;16.342;2023-07-09T07:57:05;35.30;83.10
17170;DHT22;8700;48.222;16.342;2023-07-09T08:00:34;35.80;79.50
17170;DHT22;8700;48.222;16.342;2023-07-09T08:03:55;35.90;75.50
17170;DHT22;8700;48.222;16.342;2023-07-09T08:07:18;35.80;76.20
17170;DHT22;8700;48.222;16.342;2023-07-09T08:10:39;36.70;74.10
17170;DHT22;8700;48.222;16.342;2023-07-09T08:14:01;37.70;71.50
17170;DHT22;8700;48.222;16.342;2023-07-09T08:17:25;37.10;68.10
17170;DHT22;8700;48.222;16.342;2023-07-09T08:20:46;36.90;69.40
17170;DHT22;8700;48.222;16.342;2023-07-09T08:24:09;37.80;65.70
17170;DHT22;8700;48.222;16.342;2023-07-09T08:27:30;37.80;64.50
17170;DHT22;8700;48.222;16.342;2023-07-09T08:30:52;38.00;63.90
17170;DHT22;8700;48.222;16.342;2023-07-09T08:34:13;38.80;62.80
17170;DHT22;8700;48.222;16.342;2023-07-09T08:37:38;39.00;61.80
17170;DHT22;8700;48.222;16.342;2023-07-09T08:41:02;39.00;61.60
17170;DHT22;8700;48.222;16.342;2023-07-09T08:48:20;39.10;59.70
17170;DHT22;8700;48.222;16.342;2023-07-09T08:51:47;39.30;58.80
17170;DHT22;8700;48.222;16.342;2023-07-09T08:55:12;39.60;58.60
17170;DHT22;8700;48.222;16.342;2023-07-09T08:58:35;39.50;58.00
17170;DHT22;8700;48.222;16.342;2023-07-09T09:01:58;40.00;57.20
17170;DHT22;8700;48.222;16.342;2023-07-09T09:05:23;39.40;56.30
17170;DHT22;8700;48.222;16.342;2023-07-09T09:08:51;39.00;56.10
17170;DHT22;8700;48.222;16.342;2023-07-09T09:12:18;38.70;56.60
17170;DHT22;8700;48.222;16.342;2023-07-09T09:15:47;39.20;55.60
17170;DHT22;8700;48.222;16.342;2023-07-09T09:19:18;40.30;54.90
17170;DHT22;8700;48.222;16.342;2023-07-09T09:22:46;40.90;53.40
17170;DHT22;8700;48.222;16.342;2023-07-09T09:26:15;41.00;53.40
17170;DHT22;8700;48.222;16.342;2023-07-09T09:29:38;40.70;52.80
17170;DHT22;8700;48.222;16.342;2023-07-09T09:33:05;40.70;52.20
17170;DHT22;8700;48.222;16.342;2023-07-09T09:36:27;41.00;52.40
17170;DHT22;8700;48.222;16.342;2023-07-09T09:39:51;41.10;52.30
17170;DHT22;8700;48.222;16.342;2023-07-09T09:43:14;40.40;51.90
17170;DHT22;8700;48.222;16.342;2023-07-09T09:46:37;40.40;52.50
17170;DHT22;8700;48.222;16.342;2023-07-09T09:50:00;41.20;51.20
17170;DHT22;8700;48.222;16.342;2023-07-09T09:53:23;41.40;51.70
17170;DHT22;8700;48.222;16.342;2023-07-09T09:56:45;41.10;51.60
17170;DHT22;8700;48.222;16.342;2023-07-09T10:00:13;41.10;51.30
17170;DHT22;8700;48.222;16.342;2023-07-09T10:03:38;40.90;51.20
17170;DHT22;8700;48.222;16.342;2023-07-09T10:07:05;41.40;50.40
17170;DHT22;8700;48.222;16.342;2023-07-09T10:10:30;41.50;50.00
17170;DHT22;8700;48.222;16.342;2023-07-09T10:13:55;41.10;50.50
17170;DHT22;8700;48.222;16.342;2023-07-09T10:17:35;41.40;50.30
17170;DHT22;8700;48.222;16.342;2023-07-09T10:21:05;40.90;49.90
17170;DHT22;8700;48.222;16.342;2023-07-09T10:24:50;40.90;50.20
17170;DHT22;8700;48.222;16.342;2023-07-09T10:28:44;41.80;49.60
17170;DHT22;8700;48.222;16.342;2023-07-09T10:32:17;41.50;49.10
17170;DHT22;8700;48.222;16.342;2023-07-09T10:35:49;40.70;49.90
17170;DHT22;8700;48.222;16.342;2023-07-09T10:39:16;41.70;49.40
17170;DHT22;8700;48.222;16.342;2023-07-09T10:42:44;42.00;49.50
17170;DHT22;8700;48.222;16.342;2023-07-09T10:46:11;41.90;48.80
17170;DHT22;8700;48.222;16.342;2023-07-09T10:49:40;42.10;48.70
17170;DHT22;8700;48.222;16.342;2023-07-09T10:53:09;41.60;48.80
17170;DHT22;8700;48.222;16.342;2023-07-09T10:56:34;40.60;49.20
17170;DHT22;8700;48.222;16.342;2023-07-09T11:00:00;40.10;49.30
17170;DHT22;8700;48.222;16.342;2023-07-09T11:03:27;39.60;49.80
17170;DHT22;8700;48.222;16.342;2023-07-09T11:06:53;39.60;49.50
17170;DHT22;8700;48.222;16.342;2023-07-09T11:10:21;38.50;50.30
17170;DHT22;8700;48.222;16.342;2023-07-09T11:13:48;37.80;50.60
17170;DHT22;8700;48.222;16.342;2023-07-09T11:17:19;37.90;51.00
17170;DHT22;8700;48.222;16.342;2023-07-09T11:20:43;38.20;50.40
17170;DHT22;8700;48.222;16.342;2023-07-09T11:24:24;38.70;50.00
17170;DHT22;8700;48.222;16.342;2023-07-09T11:27:50;39.70;49.40
17170;DHT22;8700;48.222;16.342;2023-07-09T11:31:20;39.70;49.80
17170;DHT22;8700;48.222;16.342;2023-07-09T11:34:46;39.50;49.60
17170;DHT22;8700;48.222;16.342;2023-07-09T11:38:12;39.20;49.50
17170;DHT22;8700;48.222;16.342;2023-07-09T11:41:40;38.70;49.80
17170;DHT22;8700;48.222;16.342;2023-07-09T11:45:06;38.80;44.20
17170;DHT22;8700;48.222;16.342;2023-07-09T11:48:32;38.30;44.80
17170;DHT22;8700;48.222;16.342;2023-07-09T11:52:00;37.20;44.00
17170;DHT22;8700;48.222;16.342;2023-07-09T11:55:27;37.40;44.80
17170;DHT22;8700;48.222;16.342;2023-07-09T11:58:49;37.00;42.80
17170;DHT22;8700;48.222;16.342;2023-07-09T12:02:18;37.10;43.30
17170;DHT22;8700;48.222;16.342;2023-07-09T12:05:41;36.90;43.50
17170;DHT22;8700;48.222;16.342;2023-07-09T12:09:09;36.90;44.30
17170;DHT22;8700;48.222;16.342;2023-07-09T12:12:35;37.10;43.50
17170;DHT22;8700;48.222;16.342;2023-07-09T12:15:56;36.90;43.90
17170;DHT22;8700;48.222;16.342;2023-07-09T12:19:22;37.00;44.70
17170;DHT22;8700;48.222;16.342;2023-07-09T12:22:44;36.40;45.20
17170;DHT22;8700;48.222;16.342;2023-07-09T12:26:12;35.50;46.10
17170;DHT22;8700;48.222;16.342;2023-07-09T12:29:35;35.40;46.40
17170;DHT22;8700;48.222;16.342;2023-07-09T12:32:57;35.90;44.80
17170;DHT22;8700;48.222;16.342;2023-07-09T12:36:24;35.80;45.30
17170;DHT22;8700;48.222;16.342;2023-07-09T12:39:49;35.40;45.10
17170;DHT22;8700;48.222;16.342;2023-07-09T12:43:15;35.50;45.40
17170;DHT22;8700;48.222;16.342;2023-07-09T12:46:38;35.80;45.40
17170;DHT22;8700;48.222;16.342;2023-07-09T12:50:18;36.20;44.50
17170;DHT22;8700;48.222;16.342;2023-07-09T12:53:39;36.00;44.30
17170;DHT22;8700;48.222;16.342;2023-07-09T12:57:05;35.90;44.30
17170;DHT22;8700;48.222;16.342;2023-07-09T13:00:38;36.10;44.20
17170;DHT22;8700;48.222;16.342;2023-07-09T13:04:01;36.20;44.20
17170;DHT22;8700;48.222;16.342;2023-07-09T13:07:31;36.20;44.40
17170;DHT22;8700;48.222;16.342;2023-07-09T13:10:55;36.30;44.20
17170;DHT22;8700;48.222;16.342;2023-07-09T13:14:19;36.00;44.40
17170;DHT22;8700;48.222;16.342;2023-07-09T13:17:43;36.10;44.60
17170;DHT22;8700;48.222;16.342;2023-07-09T13:21:15;36.30;44.50
17170;DHT22;8700;48.222;16.342;2023-07-09T13:24:37;36.60;44.20
17170;DHT22;8700;48.222;16.342;2023-07-09T13:27:58;36.60;44.60
17170;DHT22;8700;48.222;16.342;2023-07-09T13:31:20;36.70;44.20
17170;DHT22;8700;48.222;16.342;2023-07-09T13:34:46;36.60;43.90
17170;DHT22;8700;48.222;16.342;2023-07-09T13:38:14;36.60;43.70
17170;DHT22;8700;48.222;16.342;2023-07-09T13:41:36;36.20;43.80
17170;DHT22;8700;48.222;16.342;2023-07-09T13:44:58;36.00;43.90
17170;DHT22;8700;48.222;16.342;2023-07-09T13:48:20;36.20;43.90
17170;DHT22;8700;48.222;16.342;2023-07-09T13:51:46;36.40;44.00
17170;DHT22;8700;48.222;16.342;2023-07-09T13:55:19;36.60;44.00
17170;DHT22;8700;48.222;16.342;2023-07-09T13:58:41;36.80;43.80
17170;DHT22;8700;48.222;16.342;2023-07-09T14:02:19;36.90;44.20
17170;DHT22;8700;48.222;16.342;2023-07-09T14:05:41;37.00;44.20
17170;DHT22;8700;48.222;16.342;2023-07-09T14:09:08;36.60;44.70
17170;DHT22;8700;48.222;16.342;2023-07-09T14:12:31;36.60;44.40
17170;DHT22;8700;48.222;16.342;2023-07-09T14:15:52;36.60;44.70
17170;DHT22;8700;48.222;16.342;2023-07-09T14:19:15;36.80;44.60
17170;DHT22;8700;48.222;16.342;2023-07-09T14:22:37;36.70;44.80
17170;DHT22;8700;48.222;16.342;2023-07-09T14:26:00;36.60;44.90
17170;DHT22;8700;48.222;16.342;2023-07-09T14:29:23;36.60;44.80
17170;DHT22;8700;48.222;16.342;2023-07-09T14:32:45;36.60;45.00
17170;DHT22;8700;48.222;16.342;2023-07-09T14:36:08;36.70;45.20
17170;DHT22;8700;48.222;16.342;2023-07-09T14:39:29;36.50;45.20
17170;DHT22;8700;48.222;16.342;2023-07-09T14:42:52;36.30;45.50
17170;DHT22;8700;48.222;16.342;2023-07-09T14:46:14;36.60;45.50
17170;DHT22;8700;48.222;16.342;2023-07-09T14:49:35;36.70;45.60
17170;DHT22;8700;48.222;16.342;2023-07-09T14:52:56;36.70;45.50
17170;DHT22;8700;48.222;16.342;2023-07-09T14:56:18;36.60;45.80
17170;DHT22;8700;48.222;16.342;2023-07-09T14:59:42;36.50;46.00
17170;DHT22;8700;48.222;16.342;2023-07-09T15:03:03;36.40;46.00
17170;DHT22;8700;48.222;16.342;2023-07-09T15:06:25;36.10;46.50
17170;DHT22;8700;48.222;16.342;2023-07-09T15:09:46;36.00;46.50
17170;DHT22;8700;48.222;16.342;2023-07-09T15:13:18;35.90;46.50
17170;DHT22;8700;48.222;16.342;2023-07-09T15:16:43;36.20;46.40
17170;DHT22;8700;48.222;16.342;2023-07-09T15:20:07;36.40;46.40
17170;DHT22;8700;48.222;16.342;2023-07-09T15:23:38;36.50;46.60
17170;DHT22;8700;48.222;16.342;2023-07-09T15:27:00;36.60;46.50
17170;DHT22;8700;48.222;16.342;2023-07-09T15:30:26;36.20;46.80
17170;DHT22;8700;48.222;16.342;2023-07-09T15:33:52;36.00;47.00
17170;DHT22;8700;48.222;16.342;2023-07-09T15:37:16;35.70;47.30
17170;DHT22;8700;48.222;16.342;2023-07-09T15:40:38;35.50;47.30
17170;DHT22;8700;48.222;16.342;2023-07-09T15:43:59;35.40;47.30
17170;DHT22;8700;48.222;16.342;2023-07-09T15:47:24;35.60;47.30
17170;DHT22;8700;48.222;16.342;2023-07-09T15:50:48;35.70;46.90
17170;DHT22;8700;48.222;16.342;2023-07-09T15:54:14;35.40;47.30
17170;DHT22;8700;48.222;16.342;2023-07-09T15:57:37;35.50;47.30
17170;DHT22;8700;48.222;16.342;2023-07-09T16:00:58;35.60;47.30
17170;DHT22;8700;48.222;16.342;2023-07-09T16:04:20;35.40;47.40
17170;DHT22;8700;48.222;16.342;2023-07-09T16:07:43;35.30;47.40
17170;DHT22;8700;48.222;16.342;2023-07-09T16:11:08;35.40;47.60
17170;DHT22;8700;48.222;16.342;2023-07-09T16:14:34;35.40;47.80
17170;DHT22;8700;48.222;16.342;2023-07-09T16:17:55;35.10;48.10
17170;DHT22;8700;48.222;16.342;2023-07-09T16:21:24;35.10;48.20
17170;DHT22;8700;48.222;16.342;2023-07-09T16:24:48;35.00;47.90
17170;DHT22;8700;48.222;16.342;2023-07-09T16:28:13;34.70;48.50
17170;DHT22;8700;48.222;16.342;2023-07-09T16:31:34;34.50;48.70
17170;DHT22;8700;48.222;16.342;2023-07-09T16:34:56;34.70;48.30
17170;DHT22;8700;48.222;16.342;2023-07-09T16:38:19;34.50;48.10
17170;DHT22;8700;48.222;16.342;2023-07-09T16:41:42;34.50;48.40
17170;DHT22;8700;48.222;16.342;2023-07-09T16:45:04;34.40;48.60
17170;DHT22;8700;48.222;16.342;2023-07-09T16:48:26;34.40;49.10
17170;DHT22;8700;48.222;16.342;2023-07-09T16:51:50;34.30;48.90
17170;DHT22;8700;48.222;16.342;2023-07-09T16:55:20;34.20;49.00
17170;DHT22;8700;48.222;16.342;2023-07-09T16:58:47;34.30;48.90
17170;DHT22;8700;48.222;16.342;2023-07-09T17:02:24;34.40;48.80
17170;DHT22;8700;48.222;16.342;2023-07-09T17:05:45;34.20;48.80
17170;DHT22;8700;48.222;16.342;2023-07-09T17:09:07;34.10;49.00
17170;DHT22;8700;48.222;16.342;2023-07-09T17:12:29;34.00;49.30
17170;DHT22;8700;48.222;16.342;2023-07-09T17:15:54;33.90;49.20
17170;DHT22;8700;48.222;16.342;2023-07-09T17:19:16;33.90;49.30
17170;DHT22;8700;48.222;16.342;2023-07-09T17:22:38;33.90;49.20
17170;DHT22;8700;48.222;16.342;2023-07-09T17:25:59;33.70;49.90
17170;DHT22;8700;48.222;16.342;2023-07-09T17:29:21;33.70;49.40
17170;DHT22;8700;48.222;16.342;2023-07-09T17:32:43;33.70;49.40
17170;DHT22;8700;48.222;16.342;2023-07-09T17:36:10;33.70;49.40
17170;DHT22;8700;48.222;16.342;2023-07-09T17:39:33;33.60;49.40
17170;DHT22;8700;48.222;16.342;2023-07-09T17:42:55;33.40;49.70
17170;DHT22;8700;48.222;16.342;2023-07-09T17:46:16;33.50;49.90
17170;DHT22;8700;48.222;16.342;2023-07-09T17:49:39;33.50;50.00
17170;DHT22;8700;48.222;16.342;2023-07-09T17:53:01;33.40;50.00
17170;DHT22;8700;48.222;16.342;2023-07-09T17:56:23;33.30;50.10
17170;DHT22;8700;48.222;16.342;2023-07-09T17:59:45;33.20;50.20
17170;DHT22;8700;48.222;16.342;2023-07-09T18:03:09;33.20;50.30
17170;DHT22;8700;48.222;16.342;2023-07-09T18:06:35;33.20;50.20
17170;DHT22;8700;48.222;16.342;2023-07-09T18:09:58;33.10;50.40
17170;DHT22;8700;48.222;16.342;2023-07-09T18:13:23;33.10;51.30
17170;DHT22;8700;48.222;16.342;2023-07-09T18:16:45;33.00;53.00
17170;DHT22;8700;48.222;16.342;2023-07-09T18:20:14;32.90;53.90
17170;DHT22;8700;48.222;16.342;2023-07-09T18:23:40;32.80;55.00
17170;DHT22;8700;48.222;16.342;2023-07-09T18:27:01;32.60;56.20
17170;DHT22;8700;48.222;16.342;2023-07-09T18:30:25;32.40;57.20
17170;DHT22;8700;48.222;16.342;2023-07-09T18:33:46;32.10;58.60
17170;DHT22;8700;48.222;16.342;2023-07-09T18:37:09;31.90;59.30
17170;DHT22;8700;48.222;16.342;2023-07-09T18:40:36;31.60;59.40
17170;DHT22;8700;48.222;16.342;2023-07-09T18:43:59;31.50;60.30
17170;DHT22;8700;48.222;16.342;2023-07-09T18:47:20;31.30;60.60
17170;DHT22;8700;48.222;16.342;2023-07-09T18:50:45;31.10;61.00
17170;DHT22;8700;48.222;16.342;2023-07-09T18:54:14;31.00;61.40
17170;DHT22;8700;48.222;16.342;2023-07-09T18:57:38;30.90;61.60
17170;DHT22;8700;48.222;16.342;2023-07-09T19:01:01;30.70;62.00
17170;DHT22;8700;48.222;16.342;2023-07-09T19:04:26;30.60;62.20
17170;DHT22;8700;48.222;16.342;2023-07-09T19:07:51;30.50;63.00
17170;DHT22;8700;48.222;16.342;2023-07-09T19:11:13;30.30;63.30
17170;DHT22;8700;48.222;16.342;2023-07-09T19:14:36;30.10;63.60
17170;DHT22;8700;48.222;16.342;2023-07-09T19:17:58;30.00;64.00
17170;DHT22;8700;48.222;16.342;2023-07-09T19:21:21;29.90;64.60
17170;DHT22;8700;48.222;16.342;2023-07-09T19:24:43;29.70;65.10
17170;DHT22;8700;48.222;16.342;2023-07-09T19:28:05;29.70;65.30
17170;DHT22;8700;48.222;16.342;2023-07-09T19:31:31;29.80;65.50
17170;DHT22;8700;48.222;16.342;2023-07-09T19:34:54;29.70;65.80
17170;DHT22;8700;48.222;16.342;2023-07-09T19:38:16;29.80;66.00
17170;DHT22;8700;48.222;16.342;2023-07-09T19:41:37;29.60;66.60
17170;DHT22;8700;48.222;16.342;2023-07-09T19:44:59;29.40;67.80
17170;DHT22;8700;48.222;16.342;2023-07-09T19:48:24;29.10;68.60
17170;DHT22;8700;48.222;16.342;2023-07-09T19:51:49;29.10;68.60
17170;DHT22;8700;48.222;16.342;2023-07-09T19:55:16;29.10;68.70
17170;DHT22;8700;48.222;16.342;2023-07-09T19:58:39;29.00;69.50
17170;DHT22;8700;48.222;16.342;2023-07-09T20:02:01;29.00;69.60
17170;DHT22;8700;48.222;16.342;2023-07-09T20:05:26;28.90;70.10
17170;DHT22;8700;48.222;16.342;2023-07-09T20:08:48;28.80;70.30
17170;DHT22;8700;48.222;16.342;2023-07-09T20:12:16;28.70;70.90
17170;DHT22;8700;48.222;16.342;2023-07-09T20:15:39;28.50;71.80
17170;DHT22;8700;48.222;16.342;2023-07-09T20:19:09;28.30;71.90
17170;DHT22;8700;48.222;16.342;2023-07-09T20:22:33;28.10;72.40
17170;DHT22;8700;48.222;16.342;2023-07-09T20:25:57;28.00;72.30
17170;DHT22;8700;48.222;16.342;2023-07-09T20:29:18;27.90;72.50
17170;DHT22;8700;48.222;16.342;2023-07-09T20:32:41;27.70;72.60
17170;DHT22;8700;48.222;16.342;2023-07-09T20:36:04;27.80;72.70
17170;DHT22;8700;48.222;16.342;2023-07-09T20:39:27;27.70;72.80
17170;DHT22;8700;48.222;16.342;2023-07-09T20:42:51;27.60;72.60
17170;DHT22;8700;48.222;16.342;2023-07-09T20:46:14;27.70;72.50
17170;DHT22;8700;48.222;16.342;2023-07-09T20:49:36;27.60;72.40
17170;DHT22;8700;48.222;16.342;2023-07-09T20:52:58;27.60;72.50
17170;DHT22;8700;48.222;16.342;2023-07-09T20:56:21;27.40;72.80
17170;DHT22;8700;48.222;16.342;2023-07-09T20:59:43;27.30;73.20
17170;DHT22;8700;48.222;16.342;2023-07-09T21:03:07;27.20;73.40
17170;DHT22;8700;48.222;16.342;2023-07-09T21:06:30;27.20;73.80
17170;DHT22;8700;48.222;16.342;2023-07-09T21:09:51;27.20;73.90
17170;DHT22;8700;48.222;16.342;2023-07-09T21:13:16;27.00;74.40
17170;DHT22;8700;48.222;16.342;2023-07-09T21:16:38;26.90;74.80
17170;DHT22;8700;48.222;16.342;2023-07-09T21:20:01;27.00;74.90
17170;DHT22;8700;48.222;16.342;2023-07-09T21:23:25;26.90;75.20
17170;DHT22;8700;48.222;16.342;2023-07-09T21:26:47;26.80;75.30
17170;DHT22;8700;48.222;16.342;2023-07-09T21:30:11;26.80;75.50